createdAt,value
2018-07-07T00:03:28.292Z,101755.24
2018-07-07T00:08:31.393Z,101756.62
2018-07-07T00:13:34.410Z,101756.44
2018-07-07T00:18:37.490Z,101759.48
2018-07-07T00:23:40.477Z,101752.66
2018-07-07T00:28:43.509Z,101762.43
2018-07-07T00:33:46.594Z,101763.08
2018-07-07T00:38:49.708Z,101768.95
2018-07-07T00:43:52.736Z,101762.19
2018-07-07T00:48:55.729Z,101767.31
2018-07-07T00:53:58.729Z,101768.28
2018-07-07T00:59:01.793Z,101763.23
2018-07-07T01:04:05.132Z,101762.33
2018-07-07T01:09:08.586Z,101777.38
2018-07-07T01:14:12.149Z,101770.15
2018-07-07T01:19:15.731Z,101775.56
2018-07-07T01:24:19.269Z,101775.71
2018-07-07T01:29:22.332Z,101784.46
2018-07-07T01:34:25.308Z,101778.88
2018-07-07T01:39:28.538Z,101769.83
2018-07-07T01:44:31.616Z,101769.45
2018-07-07T01:49:35.518Z,101772.36
2018-07-07T01:54:38.509Z,101773.80
2018-07-07T01:59:41.618Z,101773.23
2018-07-07T02:04:44.661Z,101770.98
2018-07-07T02:09:47.608Z,101774.73
2018-07-07T02:14:50.632Z,101772.84
2018-07-07T02:19:53.601Z,101781.89
2018-07-07T02:24:56.621Z,101773.86
2018-07-07T02:29:59.686Z,101775.75
2018-07-07T02:35:02.731Z,101771.97
2018-07-07T02:40:05.777Z,101766.88
2018-07-07T02:45:08.893Z,101771.64
2018-07-07T02:50:12.062Z,101775.17
2018-07-07T02:55:15.141Z,101778.38
2018-07-07T03:00:18.246Z,101782.52
2018-07-07T03:05:21.644Z,101794.66
2018-07-07T03:10:25.019Z,101788.79
2018-07-07T03:15:28.474Z,101794.40
2018-07-07T03:20:31.853Z,101798.48
2018-07-07T03:25:35.089Z,101802.14
2018-07-07T03:30:38.468Z,101805.91
2018-07-07T03:35:41.857Z,101816.14
2018-07-07T03:40:45.107Z,101818.20
2018-07-07T03:45:48.448Z,101816.47
2018-07-07T03:50:51.828Z,101818.09
2018-07-07T03:55:55.190Z,101819.96
2018-07-07T04:00:58.616Z,101830.43
2018-07-07T04:06:02.091Z,101833.77
2018-07-07T04:11:05.710Z,101831.00
2018-07-07T04:16:09.206Z,101838.80
2018-07-07T04:21:12.623Z,101838.00
2018-07-07T04:26:15.980Z,101837.63
2018-07-07T04:31:19.342Z,101815.94
2018-07-07T04:36:22.696Z,101832.72
2018-07-07T04:41:25.994Z,101834.98
2018-07-07T04:46:30.801Z,101841.59
2018-07-07T04:51:34.157Z,101841.73
2018-07-07T04:56:37.539Z,101853.13
2018-07-07T05:01:40.949Z,101851.21
2018-07-07T05:06:44.341Z,101838.83
2018-07-07T05:11:47.688Z,101852.58
2018-07-07T05:16:51.068Z,101846.40
2018-07-07T05:21:54.449Z,101850.59
2018-07-07T05:26:57.815Z,101853.94
2018-07-07T05:32:01.102Z,101847.16
2018-07-07T05:37:04.884Z,101849.91
2018-07-07T05:42:08.439Z,101848.36
2018-07-07T05:47:11.885Z,101852.09
2018-07-07T05:52:15.261Z,101853.35
2018-07-07T05:57:18.638Z,101855.98
2018-07-07T06:02:21.981Z,101846.64
2018-07-07T06:07:25.314Z,101851.44
2018-07-07T06:12:28.640Z,101852.28
2018-07-07T06:17:32.028Z,101850.50
2018-07-07T06:22:35.403Z,101856.73
2018-07-07T06:27:38.840Z,101854.03
2018-07-07T06:32:42.214Z,101851.28
2018-07-07T06:37:45.541Z,101854.22
2018-07-07T06:42:48.864Z,101855.27
2018-07-07T06:47:52.207Z,101852.00
2018-07-07T06:52:55.531Z,101860.30
2018-07-07T06:57:58.884Z,101862.50
2018-07-07T07:03:02.216Z,101858.20
2018-07-07T07:08:05.613Z,101862.26
2018-07-07T07:13:09.345Z,101861.73
2018-07-07T07:18:12.828Z,101862.44
2018-07-07T07:23:16.260Z,101862.65
2018-07-07T07:28:19.740Z,101870.95
2018-07-07T07:33:23.135Z,101876.04
2018-07-07T07:38:26.481Z,101877.57
2018-07-07T07:43:29.843Z,101877.64
2018-07-07T07:48:33.257Z,101877.54
2018-07-07T07:53:36.700Z,101875.68
2018-07-07T07:58:40.089Z,101876.38
2018-07-07T08:03:43.465Z,101867.01
2018-07-07T08:08:46.843Z,101863.22
2018-07-07T08:13:50.188Z,101870.11
2018-07-07T08:18:53.532Z,101860.81
2018-07-07T08:23:56.856Z,101865.97
2018-07-07T08:29:00.165Z,101867.30
2018-07-07T08:34:03.551Z,101862.60
2018-07-07T08:39:06.990Z,101873.55
2018-07-07T08:44:10.892Z,101871.98
2018-07-07T08:49:14.369Z,101871.25
2018-07-07T08:54:17.725Z,101868.00
2018-07-07T08:59:21.107Z,101893.66
2018-07-07T09:04:24.445Z,101874.94
2018-07-07T09:09:27.828Z,101869.73
2018-07-07T09:14:31.175Z,101870.53
2018-07-07T09:19:34.486Z,101875.48
2018-07-07T09:24:37.890Z,101866.02
2018-07-07T09:29:41.204Z,101854.58
2018-07-07T09:34:44.581Z,101871.14
2018-07-07T09:39:47.957Z,101860.25
2018-07-07T09:44:51.561Z,101861.84
2018-07-07T09:49:54.998Z,101860.17
2018-07-07T09:54:58.304Z,101864.47
2018-07-07T10:00:01.656Z,101850.26
2018-07-07T10:05:04.961Z,101853.06
2018-07-07T10:10:08.440Z,101852.14
2018-07-07T10:15:11.854Z,101848.94
2018-07-07T10:20:15.216Z,101856.70
2018-07-07T10:25:18.593Z,101857.16
2018-07-07T10:30:21.916Z,101851.27
2018-07-07T10:35:25.264Z,101858.31
2018-07-07T10:40:28.630Z,101854.73
2018-07-07T10:45:32.035Z,101868.00
2018-07-07T10:50:35.298Z,101855.86
2018-07-07T10:55:38.725Z,101853.19
2018-07-07T11:00:42.062Z,101852.94
2018-07-07T11:05:45.365Z,101867.00
2018-07-07T11:10:48.745Z,101857.90
2018-07-07T11:15:52.082Z,101855.78
2018-07-07T11:20:55.481Z,101847.85
2018-07-07T11:25:58.852Z,101828.97
2018-07-07T11:31:02.194Z,101843.31
2018-07-07T11:36:05.665Z,101844.03
2018-07-07T11:41:10.000Z,101838.16
2018-07-07T11:46:13.596Z,101836.98
2018-07-07T11:51:16.944Z,101834.39
2018-07-07T11:56:20.300Z,101835.41
2018-07-07T12:01:23.664Z,101827.44
2018-07-07T12:06:27.006Z,101834.30
2018-07-07T12:11:30.474Z,101824.94
2018-07-07T12:16:33.784Z,101841.73
2018-07-07T12:21:37.168Z,101824.16
2018-07-07T12:26:40.532Z,101822.44
2018-07-07T12:31:43.923Z,101820.64
2018-07-07T12:36:47.341Z,101811.30
2018-07-07T12:41:50.663Z,101798.33
2018-07-07T12:46:54.027Z,101810.19
2018-07-07T12:51:57.394Z,101804.59
2018-07-07T12:57:00.711Z,101807.05
2018-07-07T13:02:04.224Z,101789.92
2018-07-07T13:07:07.613Z,101785.78
2018-07-07T13:12:11.041Z,101792.29
2018-07-07T13:17:14.414Z,101797.23
2018-07-07T13:22:17.907Z,101784.10
2018-07-07T13:27:21.252Z,101786.50
2018-07-07T13:32:24.603Z,101781.34
2018-07-07T13:37:28.005Z,101776.86
2018-07-07T13:42:31.364Z,101787.61
2018-07-07T13:47:34.705Z,101782.73
2018-07-07T13:52:38.062Z,101787.03
2018-07-07T13:57:41.450Z,101791.34
2018-07-07T14:02:45.009Z,101786.64
2018-07-07T14:07:48.469Z,101791.39
2018-07-07T14:12:51.918Z,101788.09
2018-07-07T14:17:55.277Z,101784.12
2018-07-07T14:22:58.605Z,101778.67
2018-07-07T14:28:01.975Z,101774.91
2018-07-07T14:33:05.580Z,101778.70
2018-07-07T14:38:08.973Z,101776.81
2018-07-07T14:43:12.312Z,101774.09
2018-07-07T14:48:15.731Z,101777.61
2018-07-07T14:53:19.109Z,101762.23
2018-07-07T14:58:22.528Z,101767.94
2018-07-07T15:03:25.883Z,101767.42
2018-07-07T15:08:29.233Z,101773.52
2018-07-07T15:13:32.880Z,101756.73
2018-07-07T15:18:36.793Z,101758.80
2018-07-07T15:23:40.153Z,101765.47
2018-07-07T15:28:43.490Z,101763.41
2018-07-07T15:33:47.077Z,101758.70
2018-07-07T15:38:50.509Z,101755.38
2018-07-07T15:43:53.900Z,101749.42
2018-07-07T15:48:57.281Z,101751.53
2018-07-07T15:54:00.668Z,101747.65
2018-07-07T15:59:04.064Z,101755.38
2018-07-07T16:04:07.486Z,101740.48
2018-07-07T16:09:10.802Z,101731.92
2018-07-07T16:14:14.767Z,101741.54
2018-07-07T16:19:19.352Z,101739.08
2018-07-07T16:24:22.841Z,101741.72
2018-07-07T16:29:26.262Z,101745.33
2018-07-07T16:34:29.652Z,101744.19
2018-07-07T16:39:33.591Z,101745.75
2018-07-07T16:44:37.438Z,101736.73
2018-07-07T16:49:40.931Z,101723.91
2018-07-07T16:54:44.414Z,101731.83
2018-07-07T16:59:47.944Z,101740.77
2018-07-07T17:04:51.418Z,101731.44
2018-07-07T17:09:54.938Z,101744.81
2018-07-07T17:14:59.143Z,101741.33
2018-07-07T17:20:02.553Z,101740.47
2018-07-07T17:25:06.452Z,101738.63
2018-07-07T17:30:11.515Z,101742.15
2018-07-07T17:35:15.142Z,101737.92
2018-07-07T17:40:18.663Z,101740.58
2018-07-07T17:45:22.602Z,101742.30
2018-07-07T17:50:33.375Z,101740.85
2018-07-07T17:55:36.988Z,101757.64
2018-07-07T18:00:43.092Z,101758.87
2018-07-07T18:05:46.477Z,101754.77
2018-07-07T18:10:49.861Z,101770.67
2018-07-07T18:15:54.339Z,101759.94
2018-07-07T18:20:57.771Z,101762.23
2018-07-07T18:26:01.456Z,101769.67
2018-07-07T18:31:05.367Z,101768.98
2018-07-07T18:36:08.816Z,101773.11
2018-07-07T18:41:12.641Z,101771.92
2018-07-07T18:46:16.202Z,101774.72
2018-07-07T18:51:19.600Z,101776.93
2018-07-07T18:56:22.925Z,101778.30
2018-07-07T19:01:26.449Z,101778.84
2018-07-07T19:06:29.785Z,101775.52
2018-07-07T19:11:33.192Z,101782.73
2018-07-07T19:16:36.682Z,101787.56
2018-07-07T19:21:46.798Z,101795.50
2018-07-07T19:26:51.700Z,101796.31
2018-07-07T19:32:00.504Z,101795.50
2018-07-07T19:37:09.396Z,101795.86
2018-07-07T19:42:13.084Z,101801.45
2018-07-07T19:47:16.489Z,101807.63
2018-07-07T19:52:19.899Z,101815.22
2018-07-07T19:57:23.420Z,101811.37
2018-07-07T20:02:26.813Z,101819.08
2018-07-07T20:07:30.224Z,101818.24
2018-07-07T20:12:33.701Z,101828.18
2018-07-07T20:17:54.264Z,101825.67
2018-07-07T20:22:57.837Z,101830.83
2018-07-07T20:28:06.714Z,101834.95
2018-07-07T20:33:10.247Z,101832.28
2018-07-07T20:38:13.597Z,101838.12
2018-07-07T20:43:16.938Z,101834.86
2018-07-07T20:48:20.265Z,101833.56
2018-07-07T20:53:23.656Z,101836.53
2018-07-07T20:58:27.056Z,101840.28
2018-07-07T21:03:30.439Z,101844.20
2018-07-07T21:08:33.788Z,101818.53
2018-07-07T21:13:37.334Z,101838.97
2018-07-07T21:18:40.778Z,101841.55
2018-07-07T21:23:44.185Z,101847.57
2018-07-07T21:28:47.638Z,101844.21
2018-07-07T21:33:51.002Z,101848.68
2018-07-07T21:38:54.359Z,101846.94
2018-07-07T21:43:57.770Z,101846.23
2018-07-07T21:49:01.138Z,101846.91
2018-07-07T21:54:04.562Z,101849.45
2018-07-07T21:59:13.621Z,101863.42
2018-07-07T22:04:22.345Z,101871.86
2018-07-07T22:09:25.698Z,101867.78
2018-07-07T22:14:29.421Z,101860.82
2018-07-07T22:19:32.776Z,101864.80
2018-07-07T22:24:36.484Z,101860.44
2018-07-07T22:29:39.973Z,101856.50
2018-07-07T22:34:43.376Z,101862.95
2018-07-07T22:39:47.021Z,101861.63
2018-07-07T22:44:50.367Z,101855.53
2018-07-07T22:49:53.731Z,101852.50
2018-07-07T22:54:57.072Z,101853.86
2018-07-07T23:00:00.424Z,101856.16
2018-07-07T23:05:03.830Z,101857.09
2018-07-07T23:10:07.289Z,101852.44
2018-07-07T23:15:10.656Z,101848.59
2018-07-07T23:20:14.020Z,101846.23
2018-07-07T23:25:17.401Z,101845.16
2018-07-07T23:30:21.160Z,101847.89
2018-07-07T23:35:24.584Z,101846.40
2018-07-07T23:40:27.912Z,101844.66
2018-07-07T23:45:31.357Z,101845.00
2018-07-07T23:50:34.672Z,101844.28
2018-07-07T23:55:38.124Z,101843.01
